Klihyam — WDB7218 — position and weather

sailwx.info

Track history (hours):
 
Tides and Currents Weather Stations Pressure Air Temp Water Temp Dewpoint Dewpoint Depression Visibility Wind Speed Wind Dir Waves Ship Positions

Klihyam

Owner: Sause Bros. Inc, COOS BAY, OR. More information available from US FCC via Universal Licensing System and Coast Guard Vessel Documentation Center.

Last reported at 2017-Dec-11 16:46 UTC. Time now 2017-Dec-14 04:25 UTC.
Position N 38°04' W 122°14'.

Length 35 m; draft 5.2 m.

Type: Towing. MMSI: 366938510.

Date/timePositionNaut miles runAvg speedWind from/ knotsBaromVisibWave heightAir tempDewpointWater temp
2017-Dec-11 16:46N 38°04' W 122°14'0 0.0
2017-Dec-11 16:28N 38°04' W 122°14'0 0.0
2017-Dec-11 15:58N 38°04' W 122°14'0 0.0
2017-Dec-11 15:30N 38°04' W 122°14'0 0.1
2017-Dec-11 15:00N 38°04' W 122°15'0 0.2
2017-Dec-11 14:30N 38°04' W 122°15'1 1.3
2017-Dec-11 14:00N 38°04' W 122°15'3 6.3
2017-Dec-11 13:30N 38°03' W 122°19'5 9.3
2017-Dec-11 13:00N 38°00' W 122°24'4 7.9
2017-Dec-11 12:30N 37°57' W 122°26'2 3.3
2017-Dec-11 12:00N 37°55' W 122°25'0 0.1
2017-Dec-11 11:30N 37°55' W 122°25'0 0.5
2017-Dec-11 11:00N 37°55' W 122°25'0 0.0
2017-Dec-11 10:21N 37°55' W 122°25'0 0.0
2017-Dec-11 09:57N 37°55' W 122°25'0 0.0
2017-Dec-11 09:30N 37°55' W 122°25'0 0.0
2017-Dec-11 09:00N 37°55' W 122°25'0 0.0
2017-Dec-11 08:30N 37°55' W 122°25'0 0.0
2017-Dec-11 08:00N 37°55' W 122°25'0 0.0
2017-Dec-11 07:30N 37°55' W 122°25'0 0.0
2017-Dec-11 07:00N 37°55' W 122°25'0 0.0
2017-Dec-11 06:30N 37°55' W 122°25'0 0.0
2017-Dec-11 06:00N 37°55' W 122°25'0 0.0
2017-Dec-11 05:30N 37°55' W 122°25'0 0.0
2017-Dec-11 05:00N 37°55' W 122°25'0 0.0
2017-Dec-11 04:30N 37°55' W 122°25'0 0.0
2017-Dec-11 04:00N 37°55' W 122°25'0 0.0
2017-Dec-11 03:30N 37°55' W 122°25'0 0.0
2017-Dec-11 03:00N 37°55' W 122°25'0 0.0
2017-Dec-11 02:27N 37°55' W 122°25'0 0.0
2017-Dec-11 02:00N 37°55' W 122°25'0 0.0
2017-Dec-11 01:27N 37°55' W 122°25'0 0.0
2017-Dec-11 00:51N 37°55' W 122°25'0 0.0
2017-Dec-11 00:27N 37°55' W 122°25'0 0.0
2017-Dec-10 23:57N 37°55' W 122°25'0 0.0
2017-Dec-10 23:27N 37°55' W 122°25'0 0.0
2017-Dec-10 22:57N 37°55' W 122°25'0 0.0
2017-Dec-10 22:30N 37°55' W 122°25'0 0.0
2017-Dec-10 21:57N 37°55' W 122°25'0 0.0
2017-Dec-10 21:18N 37°55' W 122°25'0 0.0
2017-Dec-10 20:57N 37°55' W 122°25'0 0.0
2017-Dec-10 20:27N 37°55' W 122°25'0 0.0
2017-Dec-10 19:48N 37°55' W 122°25'0 0.0
2017-Dec-10 19:30N 37°55' W 122°25'0 0.0
2017-Dec-10 19:00N 37°55' W 122°25'0 0.0
2017-Dec-10 18:30N 37°55' W 122°25'0 0.0
2017-Dec-10 17:51N 37°55' W 122°25'0 0.0
2017-Dec-10 17:30N 37°55' W 122°25'0 0.0
2017-Dec-10 17:00N 37°55' W 122°25'0 0.0
2017-Dec-10 16:30N 37°55' W 122°25'0 0.0
2017-Dec-10 16:00N 37°55' W 122°25'0 0.0
2017-Dec-10 15:30N 37°55' W 122°25'0 0.0
2017-Dec-10 15:00N 37°55' W 122°25'0 0.0
2017-Dec-10 14:30N 37°55' W 122°25'0 0.0
2017-Dec-10 13:57N 37°55' W 122°25'0 0.0
2017-Dec-10 13:30N 37°55' W 122°25'0 0.0
2017-Dec-10 13:00N 37°55' W 122°25'0 0.0
2017-Dec-10 12:30N 37°55' W 122°25'0 0.0
2017-Dec-10 12:00N 37°55' W 122°25'0 0.0
2017-Dec-10 11:27N 37°55' W 122°25'0 0.0
2017-Dec-10 11:00N 37°55' W 122°25'0 0.0
2017-Dec-10 10:30N 37°55' W 122°25'0 0.0
2017-Dec-10 10:00N 37°55' W 122°25'0 0.0
2017-Dec-10 09:30N 37°55' W 122°25'0 0.0
2017-Dec-10 09:00N 37°55' W 122°25'0 0.0
2017-Dec-10 08:30N 37°55' W 122°25'0 0.0
2017-Dec-10 07:57N 37°55' W 122°25'0 0.0
2017-Dec-10 07:27N 37°55' W 122°25'0 0.0
2017-Dec-10 06:57N 37°55' W 122°25'0 0.0
2017-Dec-10 06:30N 37°55' W 122°25'0 0.0
2017-Dec-10 06:00N 37°55' W 122°25'0 0.0
2017-Dec-10 05:30N 37°55' W 122°25'0 0.0
2017-Dec-10 05:00N 37°55' W 122°25'0 0.0
2017-Dec-10 04:27N 37°55' W 122°25'0 0.0
2017-Dec-10 04:00N 37°55' W 122°25'0 0.5
2017-Dec-10 03:30N 37°55' W 122°25'0 0.0
2017-Dec-10 03:00N 37°55' W 122°25'1 2.1
2017-Dec-10 02:31N 37°55' W 122°26'0 0.1
2017-Dec-10 02:00N 37°55' W 122°26'0 0.4
2017-Dec-10 01:30N 37°55' W 122°26'0 0.1
2017-Dec-10 01:00N 37°55' W 122°26'0 0.0
2017-Dec-10 00:24N 37°55' W 122°26'0 0.0
2017-Dec-10 00:00N 37°55' W 122°26'0 0.1
2017-Dec-09 23:30N 37°55' W 122°26'0 0.0
2017-Dec-09 23:00N 37°55' W 122°26'0 0.0
2017-Dec-09 22:30N 37°55' W 122°26'0 0.1
2017-Dec-09 22:00N 37°55' W 122°26'0 0.1
2017-Dec-09 21:30N 37°55' W 122°26'0 0.1
2017-Dec-09 21:00N 37°55' W 122°26'0 0.0
2017-Dec-09 20:30N 37°55' W 122°26'0 0.0
2017-Dec-09 20:00N 37°55' W 122°26'0 0.0
2017-Dec-09 19:30N 37°55' W 122°26'0 0.0
2017-Dec-09 18:57N 37°55' W 122°26'0 0.0
2017-Dec-09 18:30N 37°55' W 122°26'0 0.0
2017-Dec-09 18:00N 37°55' W 122°26'0 0.0
2017-Dec-09 17:27N 37°55' W 122°26'0 0.0
2017-Dec-09 17:00N 37°55' W 122°26'0 0.0
2017-Dec-09 16:30N 37°55' W 122°26'0 0.1
2017-Dec-09 16:00N 37°55' W 122°26'0 0.0
2017-Dec-09 15:30N 37°55' W 122°26'0 0.0
2017-Dec-09 14:58N 37°55' W 122°26'0 0.3
2017-Dec-09 14:30N 37°55' W 122°26'2 3.8
2017-Dec-09 14:00N 37°57' W 122°27'4 8.1
2017-Dec-09 13:31N 38°00' W 122°24'4 8.6
2017-Dec-09 13:00N 38°03' W 122°20'4 8.1
2017-Dec-09 12:30N 38°04' W 122°15'4 7.7
2017-Dec-09 12:00N 38°02' W 122°10'2 3.9
2017-Dec-09 11:29N 38°02' W 122°08'1 2.2
2017-Dec-09 10:52N 38°03' W 122°06'0 0.0
2017-Dec-09 01:41N 38°03' W 122°06'0 0.0
2017-Dec-09 01:05N 38°03' W 122°06'0 0.1
2017-Dec-09 00:59N 38°03' W 122°06'0 0.0
2017-Dec-08 20:47N 38°03' W 122°06'0 0.0
2017-Dec-08 20:29N 38°03' W 122°06'0 0.0
2017-Dec-08 19:59N 38°03' W 122°06'0 0.0
2017-Dec-08 19:23N 38°03' W 122°06'0 0.0
2017-Dec-08 18:59N 38°03' W 122°06'0 0.0
2017-Dec-08 18:29N 38°03' W 122°06'0 0.0
2017-Dec-08 17:59N 38°03' W 122°06'0 0.0
2017-Dec-08 17:29N 38°03' W 122°06'0 0.0
2017-Dec-08 17:00N 38°03' W 122°06'2 1.6
2017-Dec-08 15:34N 38°02' W 122°09'1 4.6
2017-Dec-08 15:16N 38°02' W 122°10'1 4.7
2017-Dec-08 15:00N 38°03' W 122°11'3 5.8
2017-Dec-08 14:30N 38°04' W 122°15'3 6.4
2017-Dec-08 14:00N 38°03' W 122°19'3 6.6
2017-Dec-08 13:30N 38°02' W 122°23'3 6.9
2017-Dec-08 13:00N 37°59' W 122°25'3 7.0
2017-Dec-08 12:30N 37°56' W 122°25'1 1.2
2017-Dec-08 12:00N 37°55' W 122°25'0 0.4
2017-Dec-08 11:30N 37°55' W 122°25'0 0.0
2017-Dec-08 10:59N 37°55' W 122°25'0 0.0
2017-Dec-08 10:29N 37°55' W 122°25'0 0.0
2017-Dec-08 09:56N 37°55' W 122°25'0 0.0
2017-Dec-08 09:29N 37°55' W 122°25'0 0.0
2017-Dec-08 08:59N 37°55' W 122°25'0 0.0
2017-Dec-08 08:29N 37°55' W 122°25'0 0.0
2017-Dec-08 07:59N 37°55' W 122°25'0 0.0
2017-Dec-08 07:26N 37°55' W 122°25'0 0.0
2017-Dec-08 06:59N 37°55' W 122°25'0 0.0
2017-Dec-08 06:29N 37°55' W 122°25'0 0.0
2017-Dec-08 05:47N 37°55' W 122°25'0 0.0
2017-Dec-08 05:29N 37°55' W 122°25'0 0.0
2017-Dec-08 04:50N 37°55' W 122°25'0 0.0
2017-Dec-08 04:23N 37°55' W 122°25'0 0.0
2017-Dec-08 03:53N 37°55' W 122°25'0 0.0
2017-Dec-08 03:26N 37°55' W 122°25'0 0.0
2017-Dec-08 02:50N 37°55' W 122°25'0 0.0
2017-Dec-08 02:20N 37°55' W 122°25'0 0.0
2017-Dec-08 01:59N 37°55' W 122°25'0 0.0
2017-Dec-08 01:29N 37°55' W 122°25'0 0.0
2017-Dec-08 00:59N 37°55' W 122°25'0 0.0
2017-Dec-08 00:29N 37°55' W 122°25'0 0.0
2017-Dec-07 23:53N 37°55' W 122°25'0 0.0
2017-Dec-07 23:05N 37°55' W 122°25'0 0.1
2017-Dec-07 22:59N 37°55' W 122°25'0 0.0
2017-Dec-07 22:29N 37°55' W 122°25'0 0.0
2017-Dec-07 21:59N 37°55' W 122°25'0 0.0
2017-Dec-07 21:26N 37°55' W 122°25'0 0.0
2017-Dec-07 20:56N 37°55' W 122°25'0 0.0
2017-Dec-07 20:14N 37°55' W 122°25'0 0.0
2017-Dec-07 19:56N 37°55' W 122°25'0 0.0
2017-Dec-07 19:26N 37°55' W 122°25'0 0.0
2017-Dec-07 18:56N 37°55' W 122°25'0 0.0
2017-Dec-07 18:29N 37°55' W 122°25'0 0.0
2017-Dec-07 17:59N 37°55' W 122°25'0 0.0
2017-Dec-07 17:20N 37°55' W 122°25'0 0.0
2017-Dec-07 16:59N 37°55' W 122°25'0 0.0
2017-Dec-07 16:26N 37°55' W 122°25'0 0.0
2017-Dec-07 15:59N 37°55' W 122°25'0 0.0
2017-Dec-07 14:59N 37°55' W 122°25'0 0.0
2017-Dec-07 14:23N 37°55' W 122°25'0 0.0
2017-Dec-07 13:59N 37°55' W 122°25'0 0.0
2017-Dec-07 13:29N 37°55' W 122°25'0 0.0
2017-Dec-07 12:56N 37°55' W 122°25'0 0.0
2017-Dec-07 12:29N 37°55' W 122°25'0 0.5
2017-Dec-07 12:00N 37°55' W 122°25'0 0.1
2017-Dec-07 11:30N 37°55' W 122°25'1 2.2
2017-Dec-07 11:01N 37°55' W 122°26'0 0.3
2017-Dec-07 10:30N 37°55' W 122°26'0 0.0
2017-Dec-07 10:00N 37°55' W 122°26'0 0.0
2017-Dec-07 09:30N 37°55' W 122°26'0 0.0
2017-Dec-07 09:00N 37°55' W 122°26'0 0.0
2017-Dec-07 08:30N 37°55' W 122°26'0 0.1
2017-Dec-07 08:00N 37°55' W 122°26'0 0.1
2017-Dec-07 07:30N 37°55' W 122°26'0 0.0
2017-Dec-07 07:01N 37°55' W 122°26'0 0.2
2017-Dec-07 06:30N 37°55' W 122°26'0 0.1
2017-Dec-07 06:00N 37°55' W 122°26'0 0.0
2017-Dec-07 05:27N 37°55' W 122°26'0 0.0
2017-Dec-07 05:00N 37°55' W 122°26'0 0.0
2017-Dec-07 04:30N 37°55' W 122°26'0 0.0
2017-Dec-07 04:00N 37°55' W 122°26'0 0.0
2017-Dec-07 03:27N 37°55' W 122°26'0 0.0
2017-Dec-07 02:51N 37°55' W 122°26'0 0.0
2017-Dec-07 02:30N 37°55' W 122°26'0 0.0
2017-Dec-07 02:00N 37°55' W 122°26'0 0.0
2017-Dec-07 01:30N 37°55' W 122°26'0 0.0
2017-Dec-07 00:54N 37°55' W 122°26'0 0.0
2017-Dec-07 00:27N 37°55' W 122°26'0 0.1
2017-Dec-06 23:54N 37°55' W 122°26'0 0.0
2017-Dec-06 23:18N 37°55' W 122°26'0 0.0
2017-Dec-06 22:57N 37°55' W 122°26'0 0.1
2017-Dec-06 22:27N 37°55' W 122°26'0 0.0
2017-Dec-06 22:00N 37°55' W 122°26'0 0.0
2017-Dec-06 21:30N 37°55' W 122°26'0 0.0
2017-Dec-06 21:00N 37°55' W 122°26'  
2017-Dec-03 22:11N 38°02' W 122°09'0 0.4
2017-Dec-03 22:00N 38°02' W 122°09'0 0.4
2017-Dec-03 21:18N 38°02' W 122°09'0 0.3
2017-Dec-03 20:47N 38°02' W 122°09'0 0.1
2017-Dec-03 19:05N 38°02' W 122°09'0 1.5
2017-Dec-03 19:00N 38°02' W 122°09'2 3.8
2017-Dec-03 18:30N 38°03' W 122°11'3 5.4
2017-Dec-03 17:54N 38°04' W 122°15'2 5.0
2017-Dec-03 17:30N 38°03' W 122°17'2 4.0
2017-Dec-03 17:00N 38°03' W 122°20'2 4.1
2017-Dec-03 16:30N 38°02' W 122°22'2 4.4
2017-Dec-03 16:00N 38°00' W 122°24'2 4.2
2017-Dec-03 15:30N 37°59' W 122°26'2 3.6
2017-Dec-03 15:00N 37°57' W 122°26'2 3.8
2017-Dec-03 14:30N 37°55' W 122°25'0 0.1
2017-Dec-03 13:56N 37°55' W 122°25'0 0.4
2017-Dec-03 13:30N 37°55' W 122°25'0 0.0
2017-Dec-03 13:00N 37°55' W 122°25'0 0.0
2017-Dec-03 12:30N 37°55' W 122°25'0 0.0
2017-Dec-03 12:00N 37°55' W 122°25'0 0.0
2017-Dec-03 11:27N 37°55' W 122°25'0 0.0
2017-Dec-03 10:54N 37°55' W 122°25'0 0.0
2017-Dec-03 10:30N 37°55' W 122°25'0 0.0
2017-Dec-03 10:00N 37°55' W 122°25'0 0.0
2017-Dec-03 09:30N 37°55' W 122°25'0 0.0
2017-Dec-03 09:00N 37°55' W 122°25'0 0.0
2017-Dec-03 08:30N 37°55' W 122°25'0 0.0
2017-Dec-03 08:00N 37°55' W 122°25'0 0.0
2017-Dec-03 07:30N 37°55' W 122°25'0 0.0
2017-Dec-03 06:57N 37°55' W 122°25'0 0.0
2017-Dec-03 06:27N 37°55' W 122°25'0 0.0
2017-Dec-03 06:00N 37°55' W 122°25'0 0.0
2017-Dec-03 05:30N 37°55' W 122°25'0 0.0
2017-Dec-03 04:54N 37°55' W 122°25'0 0.0
2017-Dec-03 04:30N 37°55' W 122°25'0 0.0
2017-Dec-03 04:00N 37°55' W 122°25'0 0.0
2017-Dec-03 03:30N 37°55' W 122°25'0 0.0
2017-Dec-03 03:00N 37°55' W 122°25'0 0.0
2017-Dec-03 02:30N 37°55' W 122°25'0 0.0
2017-Dec-03 02:00N 37°55' W 122°25'0 0.0
2017-Dec-03 01:30N 37°55' W 122°25'0 0.0
2017-Dec-03 01:00N 37°55' W 122°25'0 0.0
2017-Dec-03 00:27N 37°55' W 122°25'0 0.0
2017-Dec-03 00:00N 37°55' W 122°25'0 0.0
2017-Dec-02 23:27N 37°55' W 122°25'0 0.0
2017-Dec-02 23:00N 37°55' W 122°25'0 0.0
2017-Dec-02 22:30N 37°55' W 122°25'0 0.0
2017-Dec-02 22:00N 37°55' W 122°25'0 0.0
2017-Dec-02 21:30N 37°55' W 122°25'0 0.0
2017-Dec-02 21:00N 37°55' W 122°25'0 0.0
2017-Dec-02 20:30N 37°55' W 122°25'0 0.0
2017-Dec-02 20:00N 37°55' W 122°25'0 0.4
2017-Dec-02 19:18N 37°55' W 122°25'0 0.2
2017-Dec-02 19:00N 37°55' W 122°25'1 2.1
2017-Dec-02 18:30N 37°55' W 122°26'0 0.8
2017-Dec-02 18:01N 37°55' W 122°26'2 3.9
2017-Dec-02 17:30N 37°53' W 122°25'2 4.4
2017-Dec-02 17:01N 37°51' W 122°25'4 8.1
2017-Dec-02 16:30N 37°49' W 122°30'4 8.6
2017-Dec-02 16:01N 37°47' W 122°35'4 7.6
2017-Dec-02 15:30N 37°45' W 122°39'3 6.7
2017-Dec-02 15:00N 37°43' W 122°42'3 6.2
2017-Dec-02 14:30N 37°41' W 122°45'3 6.3
2017-Dec-02 14:00N 37°39' W 122°49'3 6.4
2017-Dec-02 13:30N 37°38' W 122°52'3 6.5
2017-Dec-02 13:01N 37°36' W 122°55'3 6.8
2017-Dec-02 12:31N 37°34' W 122°59'3 6.9
2017-Dec-02 12:00N 37°32' W 123°02'3 6.9
2017-Dec-02 11:31N 37°28' W 123°02'3 6.9
2017-Dec-02 11:00N 37°25' W 123°02'3 5.1
2017-Dec-02 10:21N 37°22' W 123°01'1 4.2
2017-Dec-02 10:01N 37°20' W 123°00'2 4.2
2017-Dec-02 09:30N 37°18' W 122°59'3 4.2
2017-Dec-02 08:53N 37°16' W 122°58'2 4.2
2017-Dec-02 08:25N 37°14' W 122°57'2 4.2
2017-Dec-02 08:00N 37°13' W 122°57'2 4.3
2017-Dec-02 07:30N 37°11' W 122°56'3 4.4
2017-Dec-02 06:53N 37°08' W 122°54'2 4.6
2017-Dec-02 06:27N 37°06' W 122°53'2 4.5
2017-Dec-02 06:00N 37°04' W 122°53'2 4.5
2017-Dec-02 05:30N 37°02' W 122°51'2 4.5
2017-Dec-02 05:00N 37°00' W 122°50'2 4.6
2017-Dec-02 04:30N 36°58' W 122°49'2 4.6
2017-Dec-02 04:00N 36°56' W 122°48'3 5.4
2017-Dec-02 03:30N 36°53' W 122°47'3 6.0
2017-Dec-02 03:00N 36°50' W 122°46'3 6.0
2017-Dec-02 02:30N 36°48' W 122°45'3 6.3
2017-Dec-02 02:01N 36°45' W 122°43'3 6.4
2017-Dec-02 01:30N 36°42' W 122°42'3 6.3
2017-Dec-02 00:59N 36°39' W 122°40'3 6.1
2017-Dec-02 00:31N 36°36' W 122°39'3 6.0
2017-Dec-02 00:00N 36°33' W 122°37'3 6.0
2017-Dec-01 23:30N 36°31' W 122°36'3 6.0
2017-Dec-01 23:00N 36°28' W 122°35'3 5.9
2017-Dec-01 22:30N 36°25' W 122°33'4 5.7
2017-Dec-01 21:48N 36°21' W 122°32'2 5.5
2017-Dec-01 21:25N 36°19' W 122°31'2 5.4
2017-Dec-01 21:00N 36°17' W 122°30'3 5.6
2017-Dec-01 20:30N 36°14' W 122°28'3 5.9
2017-Dec-01 20:00N 36°12' W 122°27'3 5.8
2017-Dec-01 19:30N 36°09' W 122°26'3 5.9
2017-Dec-01 19:00N 36°07' W 122°24'3 5.8
2017-Dec-01 18:30N 36°04' W 122°22'3 6.0
2017-Dec-01 18:00N 36°01' W 122°20'3 6.1
2017-Dec-01 17:31N 35°59' W 122°18'3 5.8
2017-Dec-01 16:59N 35°56' W 122°16'  
Track history (hours):
 
Tides and Currents Weather Stations Pressure Air Temp Water Temp Dewpoint Dewpoint Depression Visibility Wind Speed Wind Dir Waves Ship Positions

Klihyam

Owner: Sause Bros. Inc, COOS BAY, OR. More information available from US FCC via Universal Licensing System and Coast Guard Vessel Documentation Center.

Last reported at 2017-Dec-11 16:46 UTC. Time now 2017-Dec-14 04:25 UTC.
Position N 38°04' W 122°14'.

Length 35 m; draft 5.2 m.

Type: Towing. MMSI: 366938510.

Date/timePositionNaut miles runAvg speedWind from/ knotsBaromVisibWave heightAir tempDewpointWater temp
2017-Dec-11 16:46N 38°04' W 122°14'0 0.0
2017-Dec-11 16:28N 38°04' W 122°14'0 0.0
2017-Dec-11 15:58N 38°04' W 122°14'0 0.0
2017-Dec-11 15:30N 38°04' W 122°14'0 0.1
2017-Dec-11 15:00N 38°04' W 122°15'0 0.2
2017-Dec-11 14:30N 38°04' W 122°15'1 1.3
2017-Dec-11 14:00N 38°04' W 122°15'3 6.3
2017-Dec-11 13:30N 38°03' W 122°19'5 9.3
2017-Dec-11 13:00N 38°00' W 122°24'4 7.9
2017-Dec-11 12:30N 37°57' W 122°26'2 3.3
2017-Dec-11 12:00N 37°55' W 122°25'0 0.1
2017-Dec-11 11:30N 37°55' W 122°25'0 0.5
2017-Dec-11 11:00N 37°55' W 122°25'0 0.0
2017-Dec-11 10:21N 37°55' W 122°25'0 0.0
2017-Dec-11 09:57N 37°55' W 122°25'0 0.0
2017-Dec-11 09:30N 37°55' W 122°25'0 0.0
2017-Dec-11 09:00N 37°55' W 122°25'0 0.0
2017-Dec-11 08:30N 37°55' W 122°25'0 0.0
2017-Dec-11 08:00N 37°55' W 122°25'0 0.0
2017-Dec-11 07:30N 37°55' W 122°25'0 0.0
2017-Dec-11 07:00N 37°55' W 122°25'0 0.0
2017-Dec-11 06:30N 37°55' W 122°25'0 0.0
2017-Dec-11 06:00N 37°55' W 122°25'0 0.0
2017-Dec-11 05:30N 37°55' W 122°25'0 0.0
2017-Dec-11 05:00N 37°55' W 122°25'0 0.0
2017-Dec-11 04:30N 37°55' W 122°25'0 0.0
2017-Dec-11 04:00N 37°55' W 122°25'0 0.0
2017-Dec-11 03:30N 37°55' W 122°25'0 0.0
2017-Dec-11 03:00N 37°55' W 122°25'0 0.0
2017-Dec-11 02:27N 37°55' W 122°25'0 0.0
2017-Dec-11 02:00N 37°55' W 122°25'0 0.0
2017-Dec-11 01:27N 37°55' W 122°25'0 0.0
2017-Dec-11 00:51N 37°55' W 122°25'0 0.0
2017-Dec-11 00:27N 37°55' W 122°25'0 0.0
2017-Dec-10 23:57N 37°55' W 122°25'0 0.0
2017-Dec-10 23:27N 37°55' W 122°25'0 0.0
2017-Dec-10 22:57N 37°55' W 122°25'0 0.0
2017-Dec-10 22:30N 37°55' W 122°25'0 0.0
2017-Dec-10 21:57N 37°55' W 122°25'0 0.0
2017-Dec-10 21:18N 37°55' W 122°25'0 0.0
2017-Dec-10 20:57N 37°55' W 122°25'0 0.0
2017-Dec-10 20:27N 37°55' W 122°25'0 0.0
2017-Dec-10 19:48N 37°55' W 122°25'0 0.0
2017-Dec-10 19:30N 37°55' W 122°25'0 0.0
2017-Dec-10 19:00N 37°55' W 122°25'0 0.0
2017-Dec-10 18:30N 37°55' W 122°25'0 0.0
2017-Dec-10 17:51N 37°55' W 122°25'0 0.0
2017-Dec-10 17:30N 37°55' W 122°25'0 0.0
2017-Dec-10 17:00N 37°55' W 122°25'0 0.0
2017-Dec-10 16:30N 37°55' W 122°25'0 0.0
2017-Dec-10 16:00N 37°55' W 122°25'0 0.0
2017-Dec-10 15:30N 37°55' W 122°25'0 0.0
2017-Dec-10 15:00N 37°55' W 122°25'0 0.0
2017-Dec-10 14:30N 37°55' W 122°25'0 0.0
2017-Dec-10 13:57N 37°55' W 122°25'0 0.0
2017-Dec-10 13:30N 37°55' W 122°25'0 0.0
2017-Dec-10 13:00N 37°55' W 122°25'0 0.0
2017-Dec-10 12:30N 37°55' W 122°25'0 0.0
2017-Dec-10 12:00N 37°55' W 122°25'0 0.0
2017-Dec-10 11:27N 37°55' W 122°25'0 0.0
2017-Dec-10 11:00N 37°55' W 122°25'0 0.0
2017-Dec-10 10:30N 37°55' W 122°25'0 0.0
2017-Dec-10 10:00N 37°55' W 122°25'0 0.0
2017-Dec-10 09:30N 37°55' W 122°25'0 0.0
2017-Dec-10 09:00N 37°55' W 122°25'0 0.0
2017-Dec-10 08:30N 37°55' W 122°25'0 0.0
2017-Dec-10 07:57N 37°55' W 122°25'0 0.0
2017-Dec-10 07:27N 37°55' W 122°25'0 0.0
2017-Dec-10 06:57N 37°55' W 122°25'0 0.0
2017-Dec-10 06:30N 37°55' W 122°25'0 0.0
2017-Dec-10 06:00N 37°55' W 122°25'0 0.0
2017-Dec-10 05:30N 37°55' W 122°25'0 0.0
2017-Dec-10 05:00N 37°55' W 122°25'0 0.0
2017-Dec-10 04:27N 37°55' W 122°25'0 0.0
2017-Dec-10 04:00N 37°55' W 122°25'0 0.5
2017-Dec-10 03:30N 37°55' W 122°25'0 0.0
2017-Dec-10 03:00N 37°55' W 122°25'1 2.1
2017-Dec-10 02:31N 37°55' W 122°26'0 0.1
2017-Dec-10 02:00N 37°55' W 122°26'0 0.4
2017-Dec-10 01:30N 37°55' W 122°26'0 0.1
2017-Dec-10 01:00N 37°55' W 122°26'0 0.0
2017-Dec-10 00:24N 37°55' W 122°26'0 0.0
2017-Dec-10 00:00N 37°55' W 122°26'0 0.1
2017-Dec-09 23:30N 37°55' W 122°26'0 0.0
2017-Dec-09 23:00N 37°55' W 122°26'0 0.0
2017-Dec-09 22:30N 37°55' W 122°26'0 0.1
2017-Dec-09 22:00N 37°55' W 122°26'0 0.1
2017-Dec-09 21:30N 37°55' W 122°26'0 0.1
2017-Dec-09 21:00N 37°55' W 122°26'0 0.0
2017-Dec-09 20:30N 37°55' W 122°26'0 0.0
2017-Dec-09 20:00N 37°55' W 122°26'0 0.0
2017-Dec-09 19:30N 37°55' W 122°26'0 0.0
2017-Dec-09 18:57N 37°55' W 122°26'0 0.0
2017-Dec-09 18:30N 37°55' W 122°26'0 0.0
2017-Dec-09 18:00N 37°55' W 122°26'0 0.0
2017-Dec-09 17:27N 37°55' W 122°26'0 0.0
2017-Dec-09 17:00N 37°55' W 122°26'0 0.0
2017-Dec-09 16:30N 37°55' W 122°26'0 0.1
2017-Dec-09 16:00N 37°55' W 122°26'0 0.0
2017-Dec-09 15:30N 37°55' W 122°26'0 0.0
2017-Dec-09 14:58N 37°55' W 122°26'0 0.3
2017-Dec-09 14:30N 37°55' W 122°26'2 3.8
2017-Dec-09 14:00N 37°57' W 122°27'4 8.1
2017-Dec-09 13:31N 38°00' W 122°24'4 8.6
2017-Dec-09 13:00N 38°03' W 122°20'4 8.1
2017-Dec-09 12:30N 38°04' W 122°15'4 7.7
2017-Dec-09 12:00N 38°02' W 122°10'2 3.9
2017-Dec-09 11:29N 38°02' W 122°08'1 2.2
2017-Dec-09 10:52N 38°03' W 122°06'0 0.0
2017-Dec-09 01:41N 38°03' W 122°06'0 0.0
2017-Dec-09 01:05N 38°03' W 122°06'0 0.1
2017-Dec-09 00:59N 38°03' W 122°06'0 0.0
2017-Dec-08 20:47N 38°03' W 122°06'0 0.0
2017-Dec-08 20:29N 38°03' W 122°06'0 0.0
2017-Dec-08 19:59N 38°03' W 122°06'0 0.0
2017-Dec-08 19:23N 38°03' W 122°06'0 0.0
2017-Dec-08 18:59N 38°03' W 122°06'0 0.0
2017-Dec-08 18:29N 38°03' W 122°06'0 0.0
2017-Dec-08 17:59N 38°03' W 122°06'0 0.0
2017-Dec-08 17:29N 38°03' W 122°06'0 0.0
2017-Dec-08 17:00N 38°03' W 122°06'2 1.6
2017-Dec-08 15:34N 38°02' W 122°09'1 4.6
2017-Dec-08 15:16N 38°02' W 122°10'1 4.7
2017-Dec-08 15:00N 38°03' W 122°11'3 5.8
2017-Dec-08 14:30N 38°04' W 122°15'3 6.4
2017-Dec-08 14:00N 38°03' W 122°19'3 6.6
2017-Dec-08 13:30N 38°02' W 122°23'3 6.9
2017-Dec-08 13:00N 37°59' W 122°25'3 7.0
2017-Dec-08 12:30N 37°56' W 122°25'1 1.2
2017-Dec-08 12:00N 37°55' W 122°25'0 0.4
2017-Dec-08 11:30N 37°55' W 122°25'0 0.0
2017-Dec-08 10:59N 37°55' W 122°25'0 0.0
2017-Dec-08 10:29N 37°55' W 122°25'0 0.0
2017-Dec-08 09:56N 37°55' W 122°25'0 0.0
2017-Dec-08 09:29N 37°55' W 122°25'0 0.0
2017-Dec-08 08:59N 37°55' W 122°25'0 0.0
2017-Dec-08 08:29N 37°55' W 122°25'0 0.0
2017-Dec-08 07:59N 37°55' W 122°25'0 0.0
2017-Dec-08 07:26N 37°55' W 122°25'0 0.0
2017-Dec-08 06:59N 37°55' W 122°25'0 0.0
2017-Dec-08 06:29N 37°55' W 122°25'0 0.0
2017-Dec-08 05:47N 37°55' W 122°25'0 0.0
2017-Dec-08 05:29N 37°55' W 122°25'0 0.0
2017-Dec-08 04:50N 37°55' W 122°25'0 0.0
2017-Dec-08 04:23N 37°55' W 122°25'0 0.0
2017-Dec-08 03:53N 37°55' W 122°25'0 0.0
2017-Dec-08 03:26N 37°55' W 122°25'0 0.0
2017-Dec-08 02:50N 37°55' W 122°25'0 0.0
2017-Dec-08 02:20N 37°55' W 122°25'0 0.0
2017-Dec-08 01:59N 37°55' W 122°25'0 0.0
2017-Dec-08 01:29N 37°55' W 122°25'0 0.0
2017-Dec-08 00:59N 37°55' W 122°25'0 0.0
2017-Dec-08 00:29N 37°55' W 122°25'0 0.0
2017-Dec-07 23:53N 37°55' W 122°25'0 0.0
2017-Dec-07 23:05N 37°55' W 122°25'0 0.1
2017-Dec-07 22:59N 37°55' W 122°25'0 0.0
2017-Dec-07 22:29N 37°55' W 122°25'0 0.0
2017-Dec-07 21:59N 37°55' W 122°25'0 0.0
2017-Dec-07 21:26N 37°55' W 122°25'0 0.0
2017-Dec-07 20:56N 37°55' W 122°25'0 0.0
2017-Dec-07 20:14N 37°55' W 122°25'0 0.0
2017-Dec-07 19:56N 37°55' W 122°25'0 0.0
2017-Dec-07 19:26N 37°55' W 122°25'0 0.0
2017-Dec-07 18:56N 37°55' W 122°25'0 0.0
2017-Dec-07 18:29N 37°55' W 122°25'0 0.0
2017-Dec-07 17:59N 37°55' W 122°25'0 0.0
2017-Dec-07 17:20N 37°55' W 122°25'0 0.0
2017-Dec-07 16:59N 37°55' W 122°25'0 0.0
2017-Dec-07 16:26N 37°55' W 122°25'0 0.0
2017-Dec-07 15:59N 37°55' W 122°25'0 0.0
2017-Dec-07 14:59N 37°55' W 122°25'0 0.0
2017-Dec-07 14:23N 37°55' W 122°25'0 0.0
2017-Dec-07 13:59N 37°55' W 122°25'0 0.0
2017-Dec-07 13:29N 37°55' W 122°25'0 0.0
2017-Dec-07 12:56N 37°55' W 122°25'0 0.0
2017-Dec-07 12:29N 37°55' W 122°25'0 0.5
2017-Dec-07 12:00N 37°55' W 122°25'0 0.1
2017-Dec-07 11:30N 37°55' W 122°25'1 2.2
2017-Dec-07 11:01N 37°55' W 122°26'0 0.3
2017-Dec-07 10:30N 37°55' W 122°26'0 0.0
2017-Dec-07 10:00N 37°55' W 122°26'0 0.0
2017-Dec-07 09:30N 37°55' W 122°26'0 0.0
2017-Dec-07 09:00N 37°55' W 122°26'0 0.0
2017-Dec-07 08:30N 37°55' W 122°26'0 0.1
2017-Dec-07 08:00N 37°55' W 122°26'0 0.1
2017-Dec-07 07:30N 37°55' W 122°26'0 0.0
2017-Dec-07 07:01N 37°55' W 122°26'0 0.2
2017-Dec-07 06:30N 37°55' W 122°26'0 0.1
2017-Dec-07 06:00N 37°55' W 122°26'0 0.0
2017-Dec-07 05:27N 37°55' W 122°26'0 0.0
2017-Dec-07 05:00N 37°55' W 122°26'0 0.0
2017-Dec-07 04:30N 37°55' W 122°26'0 0.0
2017-Dec-07 04:00N 37°55' W 122°26'0 0.0
2017-Dec-07 03:27N 37°55' W 122°26'0 0.0
2017-Dec-07 02:51N 37°55' W 122°26'0 0.0
2017-Dec-07 02:30N 37°55' W 122°26'0 0.0
2017-Dec-07 02:00N 37°55' W 122°26'0 0.0
2017-Dec-07 01:30N 37°55' W 122°26'0 0.0
2017-Dec-07 00:54N 37°55' W 122°26'0 0.0
2017-Dec-07 00:27N 37°55' W 122°26'0 0.1
2017-Dec-06 23:54N 37°55' W 122°26'0 0.0
2017-Dec-06 23:18N 37°55' W 122°26'0 0.0
2017-Dec-06 22:57N 37°55' W 122°26'0 0.1
2017-Dec-06 22:27N 37°55' W 122°26'0 0.0
2017-Dec-06 22:00N 37°55' W 122°26'0 0.0
2017-Dec-06 21:30N 37°55' W 122°26'0 0.0
2017-Dec-06 21:00N 37°55' W 122°26'  
2017-Dec-03 22:11N 38°02' W 122°09'0 0.4
2017-Dec-03 22:00N 38°02' W 122°09'0 0.4
2017-Dec-03 21:18N 38°02' W 122°09'0 0.3
2017-Dec-03 20:47N 38°02' W 122°09'0 0.1
2017-Dec-03 19:05N 38°02' W 122°09'0 1.5
2017-Dec-03 19:00N 38°02' W 122°09'2 3.8
2017-Dec-03 18:30N 38°03' W 122°11'3 5.4
2017-Dec-03 17:54N 38°04' W 122°15'2 5.0
2017-Dec-03 17:30N 38°03' W 122°17'2 4.0
2017-Dec-03 17:00N 38°03' W 122°20'2 4.1
2017-Dec-03 16:30N 38°02' W 122°22'2 4.4
2017-Dec-03 16:00N 38°00' W 122°24'2 4.2
2017-Dec-03 15:30N 37°59' W 122°26'2 3.6
2017-Dec-03 15:00N 37°57' W 122°26'2 3.8
2017-Dec-03 14:30N 37°55' W 122°25'0 0.1
2017-Dec-03 13:56N 37°55' W 122°25'0 0.4
2017-Dec-03 13:30N 37°55' W 122°25'0 0.0
2017-Dec-03 13:00N 37°55' W 122°25'0 0.0
2017-Dec-03 12:30N 37°55' W 122°25'0 0.0
2017-Dec-03 12:00N 37°55' W 122°25'0 0.0
2017-Dec-03 11:27N 37°55' W 122°25'0 0.0
2017-Dec-03 10:54N 37°55' W 122°25'0 0.0
2017-Dec-03 10:30N 37°55' W 122°25'0 0.0
2017-Dec-03 10:00N 37°55' W 122°25'0 0.0
2017-Dec-03 09:30N 37°55' W 122°25'0 0.0
2017-Dec-03 09:00N 37°55' W 122°25'0 0.0
2017-Dec-03 08:30N 37°55' W 122°25'0 0.0
2017-Dec-03 08:00N 37°55' W 122°25'0 0.0
2017-Dec-03 07:30N 37°55' W 122°25'0 0.0
2017-Dec-03 06:57N 37°55' W 122°25'0 0.0
2017-Dec-03 06:27N 37°55' W 122°25'0 0.0
2017-Dec-03 06:00N 37°55' W 122°25'0 0.0
2017-Dec-03 05:30N 37°55' W 122°25'0 0.0
2017-Dec-03 04:54N 37°55' W 122°25'0 0.0
2017-Dec-03 04:30N 37°55' W 122°25'0 0.0
2017-Dec-03 04:00N 37°55' W 122°25'0 0.0
2017-Dec-03 03:30N 37°55' W 122°25'0 0.0
2017-Dec-03 03:00N 37°55' W 122°25'0 0.0
2017-Dec-03 02:30N 37°55' W 122°25'0 0.0
2017-Dec-03 02:00N 37°55' W 122°25'0 0.0
2017-Dec-03 01:30N 37°55' W 122°25'0 0.0
2017-Dec-03 01:00N 37°55' W 122°25'0 0.0
2017-Dec-03 00:27N 37°55' W 122°25'0 0.0
2017-Dec-03 00:00N 37°55' W 122°25'0 0.0
2017-Dec-02 23:27N 37°55' W 122°25'0 0.0
2017-Dec-02 23:00N 37°55' W 122°25'0 0.0
2017-Dec-02 22:30N 37°55' W 122°25'0 0.0
2017-Dec-02 22:00N 37°55' W 122°25'0 0.0
2017-Dec-02 21:30N 37°55' W 122°25'0 0.0
2017-Dec-02 21:00N 37°55' W 122°25'0 0.0
2017-Dec-02 20:30N 37°55' W 122°25'0 0.0
2017-Dec-02 20:00N 37°55' W 122°25'0 0.4
2017-Dec-02 19:18N 37°55' W 122°25'0 0.2
2017-Dec-02 19:00N 37°55' W 122°25'1 2.1
2017-Dec-02 18:30N 37°55' W 122°26'0 0.8
2017-Dec-02 18:01N 37°55' W 122°26'2 3.9
2017-Dec-02 17:30N 37°53' W 122°25'2 4.4
2017-Dec-02 17:01N 37°51' W 122°25'4 8.1
2017-Dec-02 16:30N 37°49' W 122°30'4 8.6
2017-Dec-02 16:01N 37°47' W 122°35'4 7.6
2017-Dec-02 15:30N 37°45' W 122°39'3 6.7
2017-Dec-02 15:00N 37°43' W 122°42'3 6.2
2017-Dec-02 14:30N 37°41' W 122°45'3 6.3
2017-Dec-02 14:00N 37°39' W 122°49'3 6.4
2017-Dec-02 13:30N 37°38' W 122°52'3 6.5
2017-Dec-02 13:01N 37°36' W 122°55'3 6.8
2017-Dec-02 12:31N 37°34' W 122°59'3 6.9
2017-Dec-02 12:00N 37°32' W 123°02'3 6.9
2017-Dec-02 11:31N 37°28' W 123°02'3 6.9
2017-Dec-02 11:00N 37°25' W 123°02'3 5.1
2017-Dec-02 10:21N 37°22' W 123°01'1 4.2
2017-Dec-02 10:01N 37°20' W 123°00'2 4.2
2017-Dec-02 09:30N 37°18' W 122°59'3 4.2
2017-Dec-02 08:53N 37°16' W 122°58'2 4.2
2017-Dec-02 08:25N 37°14' W 122°57'2 4.2
2017-Dec-02 08:00N 37°13' W 122°57'2 4.3
2017-Dec-02 07:30N 37°11' W 122°56'3 4.4
2017-Dec-02 06:53N 37°08' W 122°54'2 4.6
2017-Dec-02 06:27N 37°06' W 122°53'2 4.5
2017-Dec-02 06:00N 37°04' W 122°53'2 4.5
2017-Dec-02 05:30N 37°02' W 122°51'2 4.5
2017-Dec-02 05:00N 37°00' W 122°50'2 4.6
2017-Dec-02 04:30N 36°58' W 122°49'2 4.6
2017-Dec-02 04:00N 36°56' W 122°48'3 5.4
2017-Dec-02 03:30N 36°53' W 122°47'3 6.0
2017-Dec-02 03:00N 36°50' W 122°46'3 6.0
2017-Dec-02 02:30N 36°48' W 122°45'3 6.3
2017-Dec-02 02:01N 36°45' W 122°43'3 6.4
2017-Dec-02 01:30N 36°42' W 122°42'3 6.3
2017-Dec-02 00:59N 36°39' W 122°40'3 6.1
2017-Dec-02 00:31N 36°36' W 122°39'3 6.0
2017-Dec-02 00:00N 36°33' W 122°37'3 6.0
2017-Dec-01 23:30N 36°31' W 122°36'3 6.0
2017-Dec-01 23:00N 36°28' W 122°35'3 5.9
2017-Dec-01 22:30N 36°25' W 122°33'4 5.7
2017-Dec-01 21:48N 36°21' W 122°32'2 5.5
2017-Dec-01 21:25N 36°19' W 122°31'2 5.4
2017-Dec-01 21:00N 36°17' W 122°30'3 5.6
2017-Dec-01 20:30N 36°14' W 122°28'3 5.9
2017-Dec-01 20:00N 36°12' W 122°27'3 5.8
2017-Dec-01 19:30N 36°09' W 122°26'3 5.9
2017-Dec-01 19:00N 36°07' W 122°24'3 5.8
2017-Dec-01 18:30N 36°04' W 122°22'3 6.0
2017-Dec-01 18:00N 36°01' W 122°20'3 6.1
2017-Dec-01 17:31N 35°59' W 122°18'3 5.8
2017-Dec-01 16:59N 35°56' W 122°16'  

Dump ship's entire track history